sensor_id;sensor_type;location;lat;lon;timestamp;P1;P2;P0
62778;PMS7003;48821;48.796;2.396;2022-11-21T05:35:29;10.25;5.50;4.00
62778;PMS7003;48821;48.796;2.396;2022-11-21T05:36:39;7.25;6.00;4.50
62778;PMS7003;48821;48.796;2.396;2022-11-21T05:37:56;9.75;7.25;4.00
62778;PMS7003;48821;48.796;2.396;2022-11-21T05:39:07;10.25;6.75;5.00
62778;PMS7003;48821;48.796;2.396;2022-11-21T05:40:18;7.00;5.50;4.00
62778;PMS7003;48821;48.796;2.396;2022-11-21T05:41:28;7.75;5.00;4.00
62778;PMS7003;48821;48.796;2.396;2022-11-21T05:42:39;10.00;7.00;5.25
62778;PMS7003;48821;48.796;2.396;2022-11-21T05:44:09;5.00;3.25;3.00
62778;PMS7003;48821;48.796;2.396;2022-11-21T05:45:20;7.50;6.00;4.00
62778;PMS7003;48821;48.796;2.396;2022-11-21T05:46:30;10.75;7.50;4.50
62778;PMS7003;48821;48.796;2.396;2022-11-21T05:47:40;8.75;6.75;5.00
62778;PMS7003;48821;48.796;2.396;2022-11-21T05:48:52;7.00;6.00;5.00
62778;PMS7003;48821;48.796;2.396;2022-11-21T05:50:03;11.00;6.00;4.25
62778;PMS7003;48821;48.796;2.396;2022-11-21T05:51:14;8.50;6.75;5.00
62778;PMS7003;48821;48.796;2.396;2022-11-21T05:52:27;9.25;5.75;5.00
62778;PMS7003;48821;48.796;2.396;2022-11-21T05:53:37;7.00;5.25;3.00
62778;PMS7003;48821;48.796;2.396;2022-11-21T05:54:48;9.00;6.50;4.50
62778;PMS7003;48821;48.796;2.396;2022-11-21T05:56:02;13.75;7.00;4.00
62778;PMS7003;48821;48.796;2.396;2022-11-21T05:57:14;7.25;5.50;4.00
62778;PMS7003;48821;48.796;2.396;2022-11-21T05:58:24;6.75;4.50;2.50
62778;PMS7003;48821;48.796;2.396;2022-11-21T05:59:35;10.25;6.25;4.00
62778;PMS7003;48821;48.796;2.396;2022-11-21T06:00:45;8.75;5.75;4.25
62778;PMS7003;48821;48.796;2.396;2022-11-21T06:01:55;12.25;8.25;6.00
62778;PMS7003;48821;48.796;2.396;2022-11-21T06:03:24;11.75;7.25;5.00
62778;PMS7003;48821;48.796;2.396;2022-11-21T06:04:35;9.50;7.00;5.00
62778;PMS7003;48821;48.796;2.396;2022-11-21T06:05:46;7.25;5.00;4.00
62778;PMS7003;48821;48.796;2.396;2022-11-21T06:06:56;10.00;6.75;5.00
62778;PMS7003;48821;48.796;2.396;2022-11-21T06:08:07;12.00;8.00;5.25
62778;PMS7003;48821;48.796;2.396;2022-11-21T06:09:17;10.75;7.75;7.00
62778;PMS7003;48821;48.796;2.396;2022-11-21T06:10:27;7.50;7.50;6.00
62778;PMS7003;48821;48.796;2.396;2022-11-21T06:11:38;8.50;7.75;5.50
62778;PMS7003;48821;48.796;2.396;2022-11-21T06:12:48;13.00;9.00;7.00
62778;PMS7003;48821;48.796;2.396;2022-11-21T06:13:58;16.25;10.00;6.50
62778;PMS7003;48821;48.796;2.396;2022-11-21T06:15:09;12.25;9.75;7.00
62778;PMS7003;48821;48.796;2.396;2022-11-21T06:16:19;12.75;8.75;6.00
62778;PMS7003;48821;48.796;2.396;2022-11-21T06:17:30;10.75;8.00;6.50
62778;PMS7003;48821;48.796;2.396;2022-11-21T06:18:42;13.50;10.25;6.00
62778;PMS7003;48821;48.796;2.396;2022-11-21T06:19:54;14.00;12.75;9.00
62778;PMS7003;48821;48.796;2.396;2022-11-21T06:22:16;18.00;13.25;9.00
62778;PMS7003;48821;48.796;2.396;2022-11-21T06:23:26;15.50;12.00;9.75
62778;PMS7003;48821;48.796;2.396;2022-11-21T06:24:37;15.00;12.25;9.00
62778;PMS7003;48821;48.796;2.396;2022-11-21T06:25:47;14.50;12.50;8.25
62778;PMS7003;48821;48.796;2.396;2022-11-21T06:27:05;13.50;11.75;8.00
62778;PMS7003;48821;48.796;2.396;2022-11-21T06:28:15;15.00;12.75;8.50
62778;PMS7003;48821;48.796;2.396;2022-11-21T06:29:25;12.50;9.50;8.00
62778;PMS7003;48821;48.796;2.396;2022-11-21T06:30:36;16.50;13.25;8.00
62778;PMS7003;48821;48.796;2.396;2022-11-21T06:31:47;16.00;11.50;8.50
62778;PMS7003;48821;48.796;2.396;2022-11-21T06:32:57;14.25;11.00;8.00
62778;PMS7003;48821;48.796;2.396;2022-11-21T06:34:08;11.00;8.50;7.00
62778;PMS7003;48821;48.796;2.396;2022-11-21T06:35:18;15.75;12.75;8.25
62778;PMS7003;48821;48.796;2.396;2022-11-21T06:36:28;18.25;11.50;9.00
62778;PMS7003;48821;48.796;2.396;2022-11-21T06:37:39;14.75;9.75;7.00
62778;PMS7003;48821;48.796;2.396;2022-11-21T06:38:49;12.00;10.50;8.00
62778;PMS7003;48821;48.796;2.396;2022-11-21T06:40:02;11.50;8.25;4.00
62778;PMS7003;48821;48.796;2.396;2022-11-21T06:41:19;19.00;11.00;7.00
62778;PMS7003;48821;48.796;2.396;2022-11-21T06:42:32;12.50;11.25;8.00
62778;PMS7003;48821;48.796;2.396;2022-11-21T06:43:43;10.75;8.25;6.25
62778;PMS7003;48821;48.796;2.396;2022-11-21T06:44:54;14.25;10.75;8.00
62778;PMS7003;48821;48.796;2.396;2022-11-21T06:46:04;15.75;11.25;8.00
62778;PMS7003;48821;48.796;2.396;2022-11-21T06:47:15;18.50;15.25;9.50
62778;PMS7003;48821;48.796;2.396;2022-11-21T06:48:25;14.00;12.50;8.50
62778;PMS7003;48821;48.796;2.396;2022-11-21T06:49:36;18.25;14.00;9.00
62778;PMS7003;48821;48.796;2.396;2022-11-21T06:50:46;12.50;11.25;8.25
62778;PMS7003;48821;48.796;2.396;2022-11-21T06:51:56;14.25;11.00;8.00
62778;PMS7003;48821;48.796;2.396;2022-11-21T06:53:07;17.00;11.50;7.75
62778;PMS7003;48821;48.796;2.396;2022-11-21T06:54:17;12.75;11.00;8.50
62778;PMS7003;48821;48.796;2.396;2022-11-21T06:55:27;13.75;12.00;8.25
62778;PMS7003;48821;48.796;2.396;2022-11-21T06:56:38;14.75;12.00;10.00
62778;PMS7003;48821;48.796;2.396;2022-11-21T06:57:49;13.75;10.75;8.00
62778;PMS7003;48821;48.796;2.396;2022-11-21T06:58:59;11.25;11.25;7.00
62778;PMS7003;48821;48.796;2.396;2022-11-21T07:00:10;14.75;10.75;7.00
62778;PMS7003;48821;48.796;2.396;2022-11-21T07:01:20;17.75;11.50;8.00
62778;PMS7003;48821;48.796;2.396;2022-11-21T07:02:31;17.00;11.75;7.75
62778;PMS7003;48821;48.796;2.396;2022-11-21T07:03:42;19.50;14.00;9.50
62778;PMS7003;48821;48.796;2.396;2022-11-21T07:04:52;16.00;12.25;9.25
62778;PMS7003;48821;48.796;2.396;2022-11-21T07:06:03;14.25;12.25;8.75
62778;PMS7003;48821;48.796;2.396;2022-11-21T07:07:13;15.50;13.00;10.00
62778;PMS7003;48821;48.796;2.396;2022-11-21T07:08:23;16.50;13.25;7.75
62778;PMS7003;48821;48.796;2.396;2022-11-21T07:09:34;15.75;12.00;9.75
62778;PMS7003;48821;48.796;2.396;2022-11-21T07:10:44;17.00;13.25;8.75
62778;PMS7003;48821;48.796;2.396;2022-11-21T07:11:55;12.75;11.75;8.25
62778;PMS7003;48821;48.796;2.396;2022-11-21T07:13:25;13.00;10.75;8.00
62778;PMS7003;48821;48.796;2.396;2022-11-21T07:14:37;16.75;13.75;9.00
62778;PMS7003;48821;48.796;2.396;2022-11-21T07:15:51;15.00;11.25;8.75
62778;PMS7003;48821;48.796;2.396;2022-11-21T07:17:02;10.00;5.25;4.50
62778;PMS7003;48821;48.796;2.396;2022-11-21T07:18:13;15.50;10.75;8.00
62778;PMS7003;48821;48.796;2.396;2022-11-21T07:19:23;14.50;10.25;7.00
62778;PMS7003;48821;48.796;2.396;2022-11-21T07:20:33;12.75;9.00;8.25
62778;PMS7003;48821;48.796;2.396;2022-11-21T07:21:44;14.50;9.50;7.00
62778;PMS7003;48821;48.796;2.396;2022-11-21T07:22:54;12.25;9.00;6.00
62778;PMS7003;48821;48.796;2.396;2022-11-21T07:24:05;13.50;12.00;8.50
62778;PMS7003;48821;48.796;2.396;2022-11-21T07:25:15;12.25;10.00;6.75
62778;PMS7003;48821;48.796;2.396;2022-11-21T07:26:25;15.75;10.75;7.25
62778;PMS7003;48821;48.796;2.396;2022-11-21T07:27:36;12.50;10.00;7.75
62778;PMS7003;48821;48.796;2.396;2022-11-21T07:28:46;14.00;11.75;8.00
62778;PMS7003;48821;48.796;2.396;2022-11-21T07:29:56;16.00;12.50;9.00
62778;PMS7003;48821;48.796;2.396;2022-11-21T07:31:08;21.00;11.25;9.00
62778;PMS7003;48821;48.796;2.396;2022-11-21T07:32:19;20.25;13.50;8.00
62778;PMS7003;48821;48.796;2.396;2022-11-21T07:33:29;15.00;10.50;6.50
62778;PMS7003;48821;48.796;2.396;2022-11-21T07:34:40;17.50;13.50;9.50
62778;PMS7003;48821;48.796;2.396;2022-11-21T07:35:50;14.00;13.50;9.00
62778;PMS7003;48821;48.796;2.396;2022-11-21T07:37:01;16.75;14.75;11.00
62778;PMS7003;48821;48.796;2.396;2022-11-21T07:38:11;17.50;16.00;10.25
62778;PMS7003;48821;48.796;2.396;2022-11-21T07:39:21;17.75;14.75;10.75
62778;PMS7003;48821;48.796;2.396;2022-11-21T07:40:32;20.75;15.25;12.00
62778;PMS7003;48821;48.796;2.396;2022-11-21T07:41:43;18.25;16.00;12.00
62778;PMS7003;48821;48.796;2.396;2022-11-21T07:42:59;19.00;15.00;10.25
62778;PMS7003;48821;48.796;2.396;2022-11-21T07:44:11;17.50;16.25;11.00
62778;PMS7003;48821;48.796;2.396;2022-11-21T07:45:21;20.00;17.50;11.50
62778;PMS7003;48821;48.796;2.396;2022-11-21T07:46:31;19.00;18.25;12.25
62778;PMS7003;48821;48.796;2.396;2022-11-21T07:47:42;7.00;5.50;3.25
62778;PMS7003;48821;48.796;2.396;2022-11-21T07:48:52;18.00;15.00;11.50
62778;PMS7003;48821;48.796;2.396;2022-11-21T07:50:03;25.50;19.25;13.75
62778;PMS7003;48821;48.796;2.396;2022-11-21T07:51:14;20.00;15.00;10.50
62778;PMS7003;48821;48.796;2.396;2022-11-21T07:52:25;16.00;14.50;9.75
62778;PMS7003;48821;48.796;2.396;2022-11-21T07:53:36;17.75;15.00;11.25
62778;PMS7003;48821;48.796;2.396;2022-11-21T07:54:46;20.25;16.25;12.25
62778;PMS7003;48821;48.796;2.396;2022-11-21T07:55:57;16.25;15.00;11.00
62778;PMS7003;48821;48.796;2.396;2022-11-21T07:57:08;23.25;21.00;13.50
62778;PMS7003;48821;48.796;2.396;2022-11-21T07:58:19;23.00;19.25;12.75
62778;PMS7003;48821;48.796;2.396;2022-11-21T07:59:29;15.25;14.00;10.00
62778;PMS7003;48821;48.796;2.396;2022-11-21T08:00:39;16.75;14.00;10.50
62778;PMS7003;48821;48.796;2.396;2022-11-21T08:01:51;19.25;17.00;11.50
62778;PMS7003;48821;48.796;2.396;2022-11-21T08:03:04;19.00;17.50;11.25
62778;PMS7003;48821;48.796;2.396;2022-11-21T08:04:16;16.50;14.50;10.75
62778;PMS7003;48821;48.796;2.396;2022-11-21T08:05:26;16.50;15.00;10.75
62778;PMS7003;48821;48.796;2.396;2022-11-21T08:06:37;15.75;13.25;10.00
62778;PMS7003;48821;48.796;2.396;2022-11-21T08:07:47;17.25;16.25;10.25
62778;PMS7003;48821;48.796;2.396;2022-11-21T08:08:58;22.25;16.00;11.00
62778;PMS7003;48821;48.796;2.396;2022-11-21T08:10:08;17.50;14.50;11.00
62778;PMS7003;48821;48.796;2.396;2022-11-21T08:11:19;25.00;15.50;12.00
62778;PMS7003;48821;48.796;2.396;2022-11-21T08:12:30;18.25;13.00;10.00
62778;PMS7003;48821;48.796;2.396;2022-11-21T08:13:41;15.25;14.50;9.50
62778;PMS7003;48821;48.796;2.396;2022-11-21T08:14:52;17.00;13.75;11.00
62778;PMS7003;48821;48.796;2.396;2022-11-21T08:16:02;16.75;13.25;8.75
62778;PMS7003;48821;48.796;2.396;2022-11-21T08:17:13;18.25;16.50;12.00
62778;PMS7003;48821;48.796;2.396;2022-11-21T08:18:24;17.75;12.00;10.00
62778;PMS7003;48821;48.796;2.396;2022-11-21T08:19:35;14.50;12.50;8.75
62778;PMS7003;48821;48.796;2.396;2022-11-21T08:20:45;15.75;13.75;10.25
62778;PMS7003;48821;48.796;2.396;2022-11-21T08:21:56;12.75;12.50;8.25
62778;PMS7003;48821;48.796;2.396;2022-11-21T08:23:07;17.50;13.00;9.00
62778;PMS7003;48821;48.796;2.396;2022-11-21T08:24:17;16.75;12.75;10.25
62778;PMS7003;48821;48.796;2.396;2022-11-21T08:25:27;18.00;16.25;11.00
62778;PMS7003;48821;48.796;2.396;2022-11-21T08:26:38;13.75;9.25;5.00
62778;PMS7003;48821;48.796;2.396;2022-11-21T08:27:48;16.75;16.75;10.00
62778;PMS7003;48821;48.796;2.396;2022-11-21T08:28:59;15.75;13.25;10.00
62778;PMS7003;48821;48.796;2.396;2022-11-21T08:30:09;20.50;14.00;9.75
62778;PMS7003;48821;48.796;2.396;2022-11-21T08:31:20;18.25;13.00;8.00
62778;PMS7003;48821;48.796;2.396;2022-11-21T08:32:31;17.25;14.00;9.75
62778;PMS7003;48821;48.796;2.396;2022-11-21T08:33:41;16.25;12.00;9.75
62778;PMS7003;48821;48.796;2.396;2022-11-21T08:34:51;14.75;13.00;9.50
62778;PMS7003;48821;48.796;2.396;2022-11-21T08:36:02;13.75;11.00;9.00
62778;PMS7003;48821;48.796;2.396;2022-11-21T08:37:14;15.50;12.25;8.25
62778;PMS7003;48821;48.796;2.396;2022-11-21T08:38:24;12.75;12.00;8.25
62778;PMS7003;48821;48.796;2.396;2022-11-21T08:39:34;14.50;10.75;8.50
62778;PMS7003;48821;48.796;2.396;2022-11-21T08:40:45;10.50;10.00;8.25
62778;PMS7003;48821;48.796;2.396;2022-11-21T08:41:55;13.75;10.25;8.00
62778;PMS7003;48821;48.796;2.396;2022-11-21T08:43:12;13.75;10.50;7.50
62778;PMS7003;48821;48.796;2.396;2022-11-21T08:44:22;15.25;11.75;8.00
62778;PMS7003;48821;48.796;2.396;2022-11-21T08:45:33;14.25;11.50;6.50
62778;PMS7003;48821;48.796;2.396;2022-11-21T08:46:44;13.75;12.25;8.75
62778;PMS7003;48821;48.796;2.396;2022-11-21T08:47:55;15.75;11.75;7.25
62778;PMS7003;48821;48.796;2.396;2022-11-21T08:49:05;15.50;11.25;8.75
62778;PMS7003;48821;48.796;2.396;2022-11-21T08:50:17;11.00;10.75;8.50
62778;PMS7003;48821;48.796;2.396;2022-11-21T08:51:27;17.75;10.50;7.75
62778;PMS7003;48821;48.796;2.396;2022-11-21T08:52:38;15.50;12.00;9.75
62778;PMS7003;48821;48.796;2.396;2022-11-21T08:53:48;11.50;10.00;7.00
62778;PMS7003;48821;48.796;2.396;2022-11-21T08:54:59;11.75;9.50;7.25
62778;PMS7003;48821;48.796;2.396;2022-11-21T08:56:09;13.00;10.75;7.00
62778;PMS7003;48821;48.796;2.396;2022-11-21T08:57:20;10.75;10.75;7.25
62778;PMS7003;48821;48.796;2.396;2022-11-21T08:58:30;16.00;11.00;7.50
62778;PMS7003;48821;48.796;2.396;2022-11-21T08:59:40;10.75;9.50;6.75
62778;PMS7003;48821;48.796;2.396;2022-11-21T09:00:51;14.50;11.00;9.00
62778;PMS7003;48821;48.796;2.396;2022-11-21T09:02:02;13.75;10.25;7.75
62778;PMS7003;48821;48.796;2.396;2022-11-21T09:03:12;11.50;11.00;8.00
62778;PMS7003;48821;48.796;2.396;2022-11-21T09:04:23;13.50;9.00;6.25
62778;PMS7003;48821;48.796;2.396;2022-11-21T09:05:33;13.50;9.25;7.25
62778;PMS7003;48821;48.796;2.396;2022-11-21T09:06:43;10.25;10.00;8.00
62778;PMS7003;48821;48.796;2.396;2022-11-21T09:07:54;11.50;8.50;6.75
62778;PMS7003;48821;48.796;2.396;2022-11-21T09:09:06;14.75;9.00;7.00
62778;PMS7003;48821;48.796;2.396;2022-11-21T09:10:16;15.00;11.50;8.25
62778;PMS7003;48821;48.796;2.396;2022-11-21T09:11:27;15.75;10.50;7.50
62778;PMS7003;48821;48.796;2.396;2022-11-21T09:12:37;11.75;10.25;7.75
62778;PMS7003;48821;48.796;2.396;2022-11-21T09:13:47;10.00;9.00;6.00
62778;PMS7003;48821;48.796;2.396;2022-11-21T09:15:18;9.00;7.00;6.00
62778;PMS7003;48821;48.796;2.396;2022-11-21T09:16:47;12.25;10.00;7.00
62778;PMS7003;48821;48.796;2.396;2022-11-21T09:18:16;13.50;10.75;7.00
62778;PMS7003;48821;48.796;2.396;2022-11-21T09:19:26;8.50;8.50;5.75
62778;PMS7003;48821;48.796;2.396;2022-11-21T09:20:37;12.25;10.50;8.25
62778;PMS7003;48821;48.796;2.396;2022-11-21T09:21:50;11.00;7.50;5.75
62778;PMS7003;48821;48.796;2.396;2022-11-21T09:23:04;13.50;10.00;7.50
62778;PMS7003;48821;48.796;2.396;2022-11-21T09:24:15;11.00;8.25;6.25
62778;PMS7003;48821;48.796;2.396;2022-11-21T09:25:26;8.25;8.00;6.25
62778;PMS7003;48821;48.796;2.396;2022-11-21T09:26:36;11.75;9.50;6.75
62778;PMS7003;48821;48.796;2.396;2022-11-21T09:27:47;14.50;10.75;8.00
62778;PMS7003;48821;48.796;2.396;2022-11-21T09:28:57;9.50;8.50;7.00
62778;PMS7003;48821;48.796;2.396;2022-11-21T09:30:07;12.50;9.75;7.00
62778;PMS7003;48821;48.796;2.396;2022-11-21T09:31:18;14.25;13.00;8.00
62778;PMS7003;48821;48.796;2.396;2022-11-21T09:32:28;15.50;11.75;7.00
62778;PMS7003;48821;48.796;2.396;2022-11-21T09:33:39;10.00;8.25;6.75
62778;PMS7003;48821;48.796;2.396;2022-11-21T09:34:49;16.25;11.25;8.00
62778;PMS7003;48821;48.796;2.396;2022-11-21T09:36:00;10.00;8.75;6.00
62778;PMS7003;48821;48.796;2.396;2022-11-21T09:37:10;10.50;10.00;6.00
62778;PMS7003;48821;48.796;2.396;2022-11-21T09:38:21;9.00;8.50;7.00
62778;PMS7003;48821;48.796;2.396;2022-11-21T09:39:31;12.25;9.50;6.00
62778;PMS7003;48821;48.796;2.396;2022-11-21T09:40:42;15.50;11.00;8.50
62778;PMS7003;48821;48.796;2.396;2022-11-21T09:43:57;16.00;10.25;8.00
62778;PMS7003;48821;48.796;2.396;2022-11-21T09:45:20;11.50;9.75;6.00
62778;PMS7003;48821;48.796;2.396;2022-11-21T09:46:43;12.25;7.00;4.00
62778;PMS7003;48821;48.796;2.396;2022-11-21T09:47:56;12.25;10.25;7.00
62778;PMS7003;48821;48.796;2.396;2022-11-21T09:49:06;12.75;8.00;6.00
62778;PMS7003;48821;48.796;2.396;2022-11-21T09:51:40;13.75;9.00;6.50
62778;PMS7003;48821;48.796;2.396;2022-11-21T09:54:24;11.50;9.25;6.25
62778;PMS7003;48821;48.796;2.396;2022-11-21T09:55:44;10.50;8.75;6.25
62778;PMS7003;48821;48.796;2.396;2022-11-21T09:56:58;11.25;9.25;7.25
62778;PMS7003;48821;48.796;2.396;2022-11-21T09:58:13;13.75;11.25;7.00
62778;PMS7003;48821;48.796;2.396;2022-11-21T09:59:31;7.75;7.75;6.25
62778;PMS7003;48821;48.796;2.396;2022-11-21T10:00:44;10.50;8.00;6.75
62778;PMS7003;48821;48.796;2.396;2022-11-21T10:01:54;10.75;8.00;5.75
62778;PMS7003;48821;48.796;2.396;2022-11-21T10:03:07;8.00;8.00;6.00
62778;PMS7003;48821;48.796;2.396;2022-11-21T10:04:21;14.25;10.25;7.50
62778;PMS7003;48821;48.796;2.396;2022-11-21T10:05:34;11.50;9.25;6.00
62778;PMS7003;48821;48.796;2.396;2022-11-21T10:09:45;11.75;8.00;5.50
62778;PMS7003;48821;48.796;2.396;2022-11-21T10:11:20;7.00;7.00;6.00
62778;PMS7003;48821;48.796;2.396;2022-11-21T10:14:56;9.00;6.00;4.75
62778;PMS7003;48821;48.796;2.396;2022-11-21T10:16:19;12.25;7.00;5.00
62778;PMS7003;48821;48.796;2.396;2022-11-21T10:17:48;9.25;7.00;5.25
62778;PMS7003;48821;48.796;2.396;2022-11-21T10:22:51;9.00;5.75;4.00
62778;PMS7003;48821;48.796;2.396;2022-11-21T10:25:32;9.25;6.50;5.00
62778;PMS7003;48821;48.796;2.396;2022-11-21T10:26:53;10.00;7.00;5.00
62778;PMS7003;48821;48.796;2.396;2022-11-21T10:28:25;7.00;5.00;4.00
62778;PMS7003;48821;48.796;2.396;2022-11-21T10:29:54;10.75;6.50;4.75
62778;PMS7003;48821;48.796;2.396;2022-11-21T10:31:12;10.75;6.50;4.25
62778;PMS7003;48821;48.796;2.396;2022-11-21T10:32:46;8.25;7.00;5.00
62778;PMS7003;48821;48.796;2.396;2022-11-21T10:34:09;9.50;7.00;5.00
62778;PMS7003;48821;48.796;2.396;2022-11-21T10:35:25;6.50;6.50;5.00
62778;PMS7003;48821;48.796;2.396;2022-11-21T10:36:44;10.50;7.75;6.00
62778;PMS7003;48821;48.796;2.396;2022-11-21T10:38:01;11.25;8.25;6.00
62778;PMS7003;48821;48.796;2.396;2022-11-21T10:39:13;8.00;6.00;5.00
62778;PMS7003;48821;48.796;2.396;2022-11-21T10:40:36;6.00;5.50;4.75
62778;PMS7003;48821;48.796;2.396;2022-11-21T10:42:02;8.75;7.00;4.25
62778;PMS7003;48821;48.796;2.396;2022-11-21T10:43:34;7.75;6.75;5.00
62778;PMS7003;48821;48.796;2.396;2022-11-21T10:45:11;10.00;6.50;4.00
62778;PMS7003;48821;48.796;2.396;2022-11-21T10:46:26;7.25;6.00;4.00
62778;PMS7003;48821;48.796;2.396;2022-11-21T10:47:36;8.50;6.00;5.00
62778;PMS7003;48821;48.796;2.396;2022-11-21T10:49:04;7.25;6.00;4.00
62778;PMS7003;48821;48.796;2.396;2022-11-21T10:52:15;11.75;6.75;5.00
62778;PMS7003;48821;48.796;2.396;2022-11-21T10:53:32;10.50;6.75;4.00
62778;PMS7003;48821;48.796;2.396;2022-11-21T10:55:02;14.00;8.00;5.00
62778;PMS7003;48821;48.796;2.396;2022-11-21T10:56:14;7.00;6.00;4.75
62778;PMS7003;48821;48.796;2.396;2022-11-21T10:57:45;7.00;6.75;4.00
62778;PMS7003;48821;48.796;2.396;2022-11-21T10:58:57;6.25;6.00;4.00
62778;PMS7003;48821;48.796;2.396;2022-11-21T11:02:42;6.25;6.00;5.00
62778;PMS7003;48821;48.796;2.396;2022-11-21T11:05:20;10.00;6.75;5.00
62778;PMS7003;48821;48.796;2.396;2022-11-21T11:06:33;10.25;7.00;4.75
62778;PMS7003;48821;48.796;2.396;2022-11-21T11:08:17;13.00;7.00;4.25
62778;PMS7003;48821;48.796;2.396;2022-11-21T11:09:32;9.00;6.00;5.00
62778;PMS7003;48821;48.796;2.396;2022-11-21T11:10:44;7.00;3.75;2.00
62778;PMS7003;48821;48.796;2.396;2022-11-21T11:13:29;12.00;6.50;5.50
62778;PMS7003;48821;48.796;2.396;2022-11-21T11:14:48;7.00;4.75;4.00
62778;PMS7003;48821;48.796;2.396;2022-11-21T11:16:09;6.25;5.50;4.50
62778;PMS7003;48821;48.796;2.396;2022-11-21T11:17:25;7.75;5.00;4.00
62778;PMS7003;48821;48.796;2.396;2022-11-21T11:18:40;8.75;6.00;5.00
62778;PMS7003;48821;48.796;2.396;2022-11-21T11:20:28;13.75;6.50;5.00
62778;PMS7003;48821;48.796;2.396;2022-11-21T11:21:41;9.00;7.25;4.75
62778;PMS7003;48821;48.796;2.396;2022-11-21T11:22:53;7.25;6.25;4.50
62778;PMS7003;48821;48.796;2.396;2022-11-21T11:25:19;12.25;8.75;6.00
62778;PMS7003;48821;48.796;2.396;2022-11-21T11:26:31;6.25;5.25;3.50
62778;PMS7003;48821;48.796;2.396;2022-11-21T11:27:42;9.25;7.00;5.00
62778;PMS7003;48821;48.796;2.396;2022-11-21T11:28:53;8.75;6.50;4.75
62778;PMS7003;48821;48.796;2.396;2022-11-21T11:30:17;6.25;5.75;5.00
62778;PMS7003;48821;48.796;2.396;2022-11-21T11:31:38;9.25;6.25;5.00
62778;PMS7003;48821;48.796;2.396;2022-11-21T11:33:01;9.25;7.50;4.75
62778;PMS7003;48821;48.796;2.396;2022-11-21T11:34:12;6.00;6.00;5.00
62778;PMS7003;48821;48.796;2.396;2022-11-21T11:35:24;10.00;7.50;5.00
62778;PMS7003;48821;48.796;2.396;2022-11-21T11:37:59;9.50;7.00;5.00
62778;PMS7003;48821;48.796;2.396;2022-11-21T11:39:16;10.25;8.00;5.25
62778;PMS7003;48821;48.796;2.396;2022-11-21T11:40:36;8.25;5.50;4.25
62778;PMS7003;48821;48.796;2.396;2022-11-21T11:42:02;10.00;6.75;5.25
62778;PMS7003;48821;48.796;2.396;2022-11-21T11:43:52;9.75;9.00;5.75
62778;PMS7003;48821;48.796;2.396;2022-11-21T11:45:40;10.50;7.00;5.50
62778;PMS7003;48821;48.796;2.396;2022-11-21T11:47:19;8.25;6.75;5.00
62778;PMS7003;48821;48.796;2.396;2022-11-21T11:48:42;12.25;9.25;6.00
62778;PMS7003;48821;48.796;2.396;2022-11-21T11:49:58;10.50;8.00;6.50
62778;PMS7003;48821;48.796;2.396;2022-11-21T11:51:24;14.00;9.00;5.00
62778;PMS7003;48821;48.796;2.396;2022-11-21T11:52:59;6.75;6.25;5.25
62778;PMS7003;48821;48.796;2.396;2022-11-21T11:54:12;4.25;3.25;2.00
62778;PMS7003;48821;48.796;2.396;2022-11-21T11:55:30;8.00;7.75;5.00
62778;PMS7003;48821;48.796;2.396;2022-11-21T11:56:46;8.25;6.25;5.00
62778;PMS7003;48821;48.796;2.396;2022-11-21T11:57:58;10.50;7.00;5.00
62778;PMS7003;48821;48.796;2.396;2022-11-21T11:59:23;8.50;6.50;5.00
62778;PMS7003;48821;48.796;2.396;2022-11-21T12:00:41;7.25;6.25;5.00
62778;PMS7003;48821;48.796;2.396;2022-11-21T12:01:58;8.50;8.25;5.50
62778;PMS7003;48821;48.796;2.396;2022-11-21T12:04:54;11.00;6.00;4.50
62778;PMS7003;48821;48.796;2.396;2022-11-21T12:06:15;6.75;6.75;5.50
62778;PMS7003;48821;48.796;2.396;2022-11-21T12:07:33;8.00;6.75;4.00
62778;PMS7003;48821;48.796;2.396;2022-11-21T12:10:09;13.50;7.25;5.25
62778;PMS7003;48821;48.796;2.396;2022-11-21T12:13:16;7.00;6.75;5.00
62778;PMS7003;48821;48.796;2.396;2022-11-21T12:16:16;11.75;7.50;6.00
62778;PMS7003;48821;48.796;2.396;2022-11-21T12:17:50;10.25;7.75;5.25
62778;PMS7003;48821;48.796;2.396;2022-11-21T12:19:16;10.00;8.00;5.50
62778;PMS7003;48821;48.796;2.396;2022-11-21T12:22:06;7.50;7.25;6.00
62778;PMS7003;48821;48.796;2.396;2022-11-21T12:23:20;11.00;9.50;6.25
62778;PMS7003;48821;48.796;2.396;2022-11-21T12:24:37;10.25;7.00;5.75
62778;PMS7003;48821;48.796;2.396;2022-11-21T12:27:28;6.00;6.00;4.00
62778;PMS7003;48821;48.796;2.396;2022-11-21T12:33:36;7.50;6.25;4.00
62778;PMS7003;48821;48.796;2.396;2022-11-21T12:35:02;11.50;7.00;4.00
62778;PMS7003;48821;48.796;2.396;2022-11-21T12:39:57;10.00;8.25;5.50
62778;PMS7003;48821;48.796;2.396;2022-11-21T12:41:36;12.00;7.25;5.00
62778;PMS7003;48821;48.796;2.396;2022-11-21T12:45:06;13.25;8.75;6.75
62778;PMS7003;48821;48.796;2.396;2022-11-21T12:46:44;14.50;7.00;5.00
62778;PMS7003;48821;48.796;2.396;2022-11-21T12:50:02;11.00;6.00;5.00
62778;PMS7003;48821;48.796;2.396;2022-11-21T12:55:37;7.00;5.50;4.00
62778;PMS7003;48821;48.796;2.396;2022-11-21T12:56:56;8.50;7.00;5.75
62778;PMS7003;48821;48.796;2.396;2022-11-21T12:58:30;9.00;5.00;4.00
62778;PMS7003;48821;48.796;2.396;2022-11-21T13:01:34;7.00;5.75;4.00
62778;PMS7003;48821;48.796;2.396;2022-11-21T13:03:50;9.00;7.75;5.00
62778;PMS7003;48821;48.796;2.396;2022-11-21T13:04:56;6.00;5.00;4.50
62778;PMS7003;48821;48.796;2.396;2022-11-21T13:06:16;6.50;5.25;4.75
62778;PMS7003;48821;48.796;2.396;2022-11-21T13:07:32;9.25;6.25;5.25
62778;PMS7003;48821;48.796;2.396;2022-11-21T13:08:43;5.00;5.00;4.00
62778;PMS7003;48821;48.796;2.396;2022-11-21T13:09:56;5.50;5.00;3.00
62778;PMS7003;48821;48.796;2.396;2022-11-21T13:11:29;10.75;5.00;3.75
62778;PMS7003;48821;48.796;2.396;2022-11-21T13:13:16;8.75;6.00;4.00
62778;PMS7003;48821;48.796;2.396;2022-11-21T13:16:04;7.00;6.00;5.00
62778;PMS7003;48821;48.796;2.396;2022-11-21T13:18:45;7.00;5.75;4.50
62778;PMS7003;48821;48.796;2.396;2022-11-21T13:21:48;7.25;4.50;3.00
62778;PMS7003;48821;48.796;2.396;2022-11-21T13:23:02;7.00;4.00;3.00
62778;PMS7003;48821;48.796;2.396;2022-11-21T13:27:41;8.00;6.50;4.25
62778;PMS7003;48821;48.796;2.396;2022-11-21T13:29:06;7.25;4.75;4.00
62778;PMS7003;48821;48.796;2.396;2022-11-21T13:30:19;6.25;5.75;4.50
62778;PMS7003;48821;48.796;2.396;2022-11-21T13:31:32;9.75;5.75;4.00
62778;PMS7003;48821;48.796;2.396;2022-11-21T13:32:47;6.75;5.25;4.75
62778;PMS7003;48821;48.796;2.396;2022-11-21T13:33:58;11.00;7.75;5.00
62778;PMS7003;48821;48.796;2.396;2022-11-21T13:45:47;5.00;4.25;3.75
62778;PMS7003;48821;48.796;2.396;2022-11-21T13:49:47;4.50;4.50;3.50
62778;PMS7003;48821;48.796;2.396;2022-11-21T13:56:24;7.00;5.25;4.50
62778;PMS7003;48821;48.796;2.396;2022-11-21T13:57:48;5.00;5.00;4.00
62778;PMS7003;48821;48.796;2.396;2022-11-21T13:59:05;6.25;4.75;3.75
62778;PMS7003;48821;48.796;2.396;2022-11-21T14:00:25;6.75;6.75;5.00
62778;PMS7003;48821;48.796;2.396;2022-11-21T14:01:53;7.00;4.00;3.75
62778;PMS7003;48821;48.796;2.396;2022-11-21T14:06:36;5.00;4.75;3.00
62778;PMS7003;48821;48.796;2.396;2022-11-21T14:07:48;5.25;4.00;2.50
62778;PMS7003;48821;48.796;2.396;2022-11-21T14:10:31;5.50;5.50;3.75
62778;PMS7003;48821;48.796;2.396;2022-11-21T14:11:43;4.50;4.00;3.25